Lake Edwards, Minnesota
Current Conditions -  °F | °C
As of 7:53 AM on Monday 24 Nov 2014 (Local Time) from KBRD Reporting Station
Overcast Overcast  
Wind Chill:   Ceiling: 1100
Heat Index: 18°   Visibility: 10mi
Dew Point: 15°   Wind: 15mph
Humidity: 88%   Direction: 310°NW
Pressure: 29.43"   Gusts: NA
Location:  46.5121°N, 94.2802°W
Report Text: KBRD 241353Z AUTO 31013KT 10SM OVC011 M08/M09 A2943 RMK AO2 SLP982 I1000 T10781094
Loading
Personal Weather Stations






























Interactive Weather Map New forecast layout! Learn more

10-Day Weather Forecast

Advertisements
Track Severe Weather on mobile